Time;durP1;ratioP1;P1;durP2;ratioP2;P2;SDS_P1;SDS_P2;PMS_P1;PMS_P2;Temp;Humidity;BMP_temperature;BMP_pressure;BME280_temperature;BME280_humidity;BME280_pressure;Samples;Min_cycle;Max_cycle;Signal;HPM_P1;HPM_P2
2023/08/03 00:02:10;;;;;;;;;;;23.70;64.90;;;;;;5148225;27;19915;-36
2023/08/03 00:04:36;;;;;;;;;;;23.70;64.60;;;;;;5150631;27;19915;-35
2023/08/03 00:07:02;;;;;;;;;;;23.70;63.80;;;;;;5145421;27;19915;-35
2023/08/03 00:09:28;;;;;;;;;;;23.70;63.40;;;;;;5150270;27;19964;-35
2023/08/03 00:11:54;;;;;;;;;;;23.70;63.40;;;;;;5156511;27;19915;-35
2023/08/03 00:14:20;;;;;;;;;;;23.70;63.30;;;;;;5163264;27;19957;-35
2023/08/03 00:17:06;;;;;;;;;;;23.70;64.00;;;;;;5155005;27;19920;-35
2023/08/03 00:19:32;;;;;;;;;;;23.70;63.30;;;;;;5120870;28;19999;-35
2023/08/03 00:21:57;;;;;;;;;;;23.70;64.70;;;;;;5119660;28;20558;-35
2023/08/03 00:24:24;;;;;;;;;;;23.70;65.80;;;;;;5120395;28;20288;-35
2023/08/03 00:26:50;;;;;;;;;;;23.70;66.20;;;;;;5120061;28;19918;-35
2023/08/03 00:29:16;;;;;;;;;;;23.70;66.70;;;;;;5121138;28;19911;-35
2023/08/03 00:31:42;;;;;;;;;;;23.70;66.90;;;;;;5121108;28;19916;-35
2023/08/03 00:34:08;;;;;;;;;;;23.70;66.80;;;;;;5119607;28;19967;-35
2023/08/03 00:36:33;;;;;;;;;;;23.70;66.50;;;;;;5117058;28;19988;-35
2023/08/03 00:38:59;;;;;;;;;;;23.70;66.10;;;;;;5113272;27;19920;-35
2023/08/03 00:41:25;;;;;;;;;;;23.70;64.50;;;;;;5114388;28;19915;-35
2023/08/03 00:43:51;;;;;;;;;;;23.70;65.70;;;;;;5119520;28;19912;-35
2023/08/03 00:46:17;;;;;;;;;;;23.60;66.20;;;;;;5117204;28;19919;-35
2023/08/03 00:48:43;;;;;;;;;;;23.70;66.50;;;;;;5119231;28;19954;-35
2023/08/03 00:51:08;;;;;;;;;;;23.70;66.60;;;;;;5132067;27;19941;-35
2023/08/03 00:53:34;;;;;;;;;;;23.70;66.50;;;;;;5136452;27;19958;-35
2023/08/03 00:56:00;;;;;;;;;;;23.70;66.50;;;;;;5144463;27;19923;-35
2023/08/03 00:58:26;;;;;;;;;;;23.70;66.20;;;;;;5166218;27;19915;-35
2023/08/03 01:00:52;;;;;;;;;;;23.70;65.40;;;;;;5172875;27;19911;-35
2023/08/03 01:03:18;;;;;;;;;;;23.70;66.30;;;;;;5166956;27;19950;-35
2023/08/03 01:05:44;;;;;;;;;;;23.70;66.30;;;;;;5176208;27;19914;-35
2023/08/03 01:08:09;;;;;;;;;;;23.70;66.50;;;;;;5175234;27;19911;-35
2023/08/03 01:10:35;;;;;;;;;;;23.70;66.70;;;;;;5181220;27;19914;-35
2023/08/03 01:13:01;;;;;;;;;;;23.70;66.80;;;;;;5174686;27;19912;-35
2023/08/03 01:15:27;;;;;;;;;;;23.70;66.80;;;;;;5177493;27;19926;-35
2023/08/03 01:17:53;;;;;;;;;;;23.70;66.80;;;;;;5175552;27;19918;-35
2023/08/03 01:20:19;;;;;;;;;;;23.70;66.70;;;;;;5187481;27;19918;-35
2023/08/03 01:22:45;;;;;;;;;;;23.70;66.50;;;;;;5185049;27;19915;-35
2023/08/03 01:25:11;;;;;;;;;;;23.70;66.40;;;;;;5178503;27;19911;-35
2023/08/03 01:27:37;;;;;;;;;;;23.70;66.60;;;;;;5180908;27;19930;-35
2023/08/03 01:30:03;;;;;;;;;;;23.70;66.50;;;;;;5151150;27;19915;-35
2023/08/03 01:32:29;;;;;;;;;;;23.70;66.60;;;;;;5175545;27;19911;-35
2023/08/03 01:34:55;;;;;;;;;;;23.70;66.60;;;;;;5140769;27;19925;-35
2023/08/03 01:37:21;;;;;;;;;;;23.70;66.70;;;;;;5179945;27;19938;-35
2023/08/03 01:39:47;;;;;;;;;;;23.70;66.70;;;;;;5186341;27;19911;-35
2023/08/03 01:42:13;;;;;;;;;;;23.80;66.40;;;;;;5183271;27;20018;-35
2023/08/03 01:44:40;;;;;;;;;;;23.80;66.50;;;;;;5180702;27;20014;-35
2023/08/03 01:47:06;;;;;;;;;;;23.80;66.10;;;;;;5151710;27;19974;-35
2023/08/03 01:49:32;;;;;;;;;;;23.80;66.20;;;;;;5170659;27;19932;-35
2023/08/03 01:51:58;;;;;;;;;;;23.80;66.30;;;;;;5176596;27;19919;-35
2023/08/03 01:54:24;;;;;;;;;;;23.80;66.40;;;;;;5182034;27;19957;-35
2023/08/03 01:56:50;;;;;;;;;;;23.80;66.50;;;;;;5176158;27;19923;-36
2023/08/03 01:59:16;;;;;;;;;;;23.80;66.60;;;;;;5184111;27;19922;-35
2023/08/03 02:01:41;;;;;;;;;;;23.80;66.70;;;;;;5177801;27;19914;-35
2023/08/03 02:04:07;;;;;;;;;;;23.80;66.80;;;;;;5179398;27;19919;-35
2023/08/03 02:06:33;;;;;;;;;;;23.80;66.90;;;;;;5173640;27;20375;-35
2023/08/03 02:08:59;;;;;;;;;;;23.80;66.90;;;;;;5169685;27;19919;-35
2023/08/03 02:11:26;;;;;;;;;;;23.80;67.00;;;;;;5182794;27;19915;-35
2023/08/03 02:13:52;;;;;;;;;;;23.90;67.10;;;;;;5167857;27;19915;-35
2023/08/03 02:16:17;;;;;;;;;;;23.90;67.20;;;;;;5174252;27;19969;-35
2023/08/03 02:18:43;;;;;;;;;;;23.90;67.20;;;;;;5172057;27;19954;-38
2023/08/03 02:21:09;;;;;;;;;;;23.90;67.30;;;;;;5172867;27;20359;-35
2023/08/03 02:23:35;;;;;;;;;;;23.90;67.40;;;;;;5167637;27;19915;-35
2023/08/03 02:26:04;;;;;;;;;;;23.90;67.40;;;;;;5168307;27;19918;-35
2023/08/03 02:28:30;;;;;;;;;;;23.90;67.50;;;;;;5185592;27;19919;-35
2023/08/03 02:30:57;;;;;;;;;;;24.00;67.60;;;;;;5176333;27;20547;-35
2023/08/03 02:33:23;;;;;;;;;;;23.90;67.60;;;;;;5170184;27;19915;-35
2023/08/03 02:35:49;;;;;;;;;;;24.00;67.70;;;;;;5175944;27;19997;-35
2023/08/03 02:38:14;;;;;;;;;;;24.00;67.70;;;;;;5185483;27;19915;-35
2023/08/03 02:40:40;;;;;;;;;;;24.00;68.50;;;;;;5171431;27;19911;-35
2023/08/03 02:43:06;;;;;;;;;;;24.00;67.90;;;;;;5174856;27;19926;-36
2023/08/03 02:45:32;;;;;;;;;;;24.00;68.00;;;;;;5173427;27;19922;-35
2023/08/03 02:47:58;;;;;;;;;;;24.00;68.00;;;;;;5174745;27;19919;-35
2023/08/03 02:50:24;;;;;;;;;;;24.00;68.10;;;;;;5186041;27;19919;-35
2023/08/03 02:52:50;;;;;;;;;;;24.00;68.20;;;;;;5171674;27;19918;-35
2023/08/03 02:55:16;;;;;;;;;;;24.10;68.40;;;;;;5185372;27;20059;-35
2023/08/03 02:57:42;;;;;;;;;;;24.10;68.40;;;;;;5171991;27;19915;-35
2023/08/03 03:00:09;;;;;;;;;;;24.10;68.40;;;;;;5169715;27;20004;-35
2023/08/03 03:02:36;;;;;;;;;;;24.10;68.40;;;;;;5176762;27;19911;-35
2023/08/03 03:05:02;;;;;;;;;;;24.10;68.30;;;;;;5180019;27;19911;-35
2023/08/03 03:07:31;;;;;;;;;;;24.10;68.30;;;;;;5181067;27;19914;-35
2023/08/03 03:09:57;;;;;;;;;;;24.10;68.40;;;;;;5170184;27;19915;-35
2023/08/03 03:12:23;;;;;;;;;;;24.10;68.40;;;;;;5184560;27;19914;-35
2023/08/03 03:14:49;;;;;;;;;;;24.10;68.40;;;;;;5175277;27;20367;-35
2023/08/03 03:17:15;;;;;;;;;;;24.10;68.50;;;;;;5179253;27;19929;-35
2023/08/03 03:19:41;;;;;;;;;;;24.10;68.40;;;;;;5180266;27;19954;-35
2023/08/03 03:22:07;;;;;;;;;;;24.20;68.60;;;;;;5174582;27;20096;-35
2023/08/03 03:24:33;;;;;;;;;;;24.20;68.60;;;;;;5179476;27;19922;-34
2023/08/03 03:26:59;;;;;;;;;;;24.20;68.50;;;;;;5182577;27;19950;-35
2023/08/03 03:29:25;;;;;;;;;;;24.20;68.50;;;;;;5170860;27;20379;-34
2023/08/03 03:31:51;;;;;;;;;;;24.20;68.50;;;;;;5177969;27;19915;-35
2023/08/03 03:34:17;;;;;;;;;;;24.20;68.50;;;;;;5176944;27;19926;-35
2023/08/03 03:36:42;;;;;;;;;;;24.20;68.50;;;;;;5170588;27;19923;-35
2023/08/03 03:39:08;;;;;;;;;;;24.20;68.50;;;;;;5182728;27;20335;-35
2023/08/03 03:41:34;;;;;;;;;;;24.20;68.50;;;;;;5182618;27;20000;-35
2023/08/03 03:44:00;;;;;;;;;;;24.20;68.50;;;;;;5168158;27;19915;-35
2023/08/03 03:46:26;;;;;;;;;;;24.20;68.50;;;;;;5176680;27;19919;-35
2023/08/03 03:48:52;;;;;;;;;;;24.20;68.50;;;;;;5184336;27;19911;-35
2023/08/03 03:51:20;;;;;;;;;;;24.20;68.50;;;;;;5170807;27;19914;-35
2023/08/03 03:53:45;;;;;;;;;;;24.20;68.50;;;;;;5170904;27;19915;-35
2023/08/03 03:56:11;;;;;;;;;;;24.20;68.50;;;;;;5174544;27;19930;-35
2023/08/03 03:58:37;;;;;;;;;;;24.20;68.50;;;;;;5171602;27;19910;-35
2023/08/03 04:01:03;;;;;;;;;;;24.20;68.50;;;;;;5175474;27;20457;-34
2023/08/03 04:03:29;;;;;;;;;;;24.20;68.50;;;;;;5171451;27;19930;-35
2023/08/03 04:05:55;;;;;;;;;;;24.30;68.60;;;;;;5181625;27;19917;-35
2023/08/03 04:08:21;;;;;;;;;;;24.30;68.40;;;;;;5180304;27;19915;-35
2023/08/03 04:10:47;;;;;;;;;;;24.20;68.40;;;;;;5173374;27;19982;-35
2023/08/03 04:13:13;;;;;;;;;;;24.30;68.30;;;;;;5172426;27;19915;-35
2023/08/03 04:15:38;;;;;;;;;;;24.30;68.30;;;;;;5174168;27;19923;-35
2023/08/03 04:18:04;;;;;;;;;;;24.30;68.30;;;;;;5174740;27;19932;-35
2023/08/03 04:20:30;;;;;;;;;;;24.30;68.20;;;;;;5179697;27;19915;-35
2023/08/03 04:22:56;;;;;;;;;;;24.30;68.20;;;;;;5178372;27;19921;-35
2023/08/03 04:25:22;;;;;;;;;;;24.30;68.20;;;;;;5176234;27;19911;-35
2023/08/03 04:27:48;;;;;;;;;;;24.30;68.20;;;;;;5183839;27;19950;-35
2023/08/03 04:30:14;;;;;;;;;;;24.30;68.20;;;;;;5171813;27;19962;-35
2023/08/03 04:32:40;;;;;;;;;;;24.30;68.30;;;;;;5170322;27;19911;-35
2023/08/03 04:35:06;;;;;;;;;;;24.30;68.30;;;;;;5174772;27;19935;-34
2023/08/03 04:37:32;;;;;;;;;;;24.30;68.30;;;;;;5183066;27;19917;-35
2023/08/03 04:39:58;;;;;;;;;;;24.30;68.40;;;;;;5175509;27;19914;-35
2023/08/03 04:42:24;;;;;;;;;;;24.30;68.40;;;;;;5154976;27;19997;-35
2023/08/03 04:44:50;;;;;;;;;;;24.30;68.40;;;;;;5174473;27;19911;-35
2023/08/03 04:47:16;;;;;;;;;;;24.30;68.50;;;;;;5177095;27;19975;-34
2023/08/03 04:49:42;;;;;;;;;;;24.30;68.40;;;;;;5178259;27;19915;-35
2023/08/03 04:52:07;;;;;;;;;;;24.30;68.30;;;;;;5170301;27;19919;-35
2023/08/03 04:54:33;;;;;;;;;;;24.30;68.20;;;;;;5166085;27;19918;-35
2023/08/03 04:56:59;;;;;;;;;;;24.30;68.20;;;;;;5165433;27;20044;-35
2023/08/03 04:59:25;;;;;;;;;;;24.30;68.90;;;;;;5169040;27;19911;-35
2023/08/03 05:01:51;;;;;;;;;;;24.30;68.20;;;;;;5180189;27;19914;-35
2023/08/03 05:04:17;;;;;;;;;;;24.30;68.30;;;;;;5174469;27;19910;-34
2023/08/03 05:06:43;;;;;;;;;;;24.30;68.20;;;;;;5178143;27;19915;-35
2023/08/03 05:09:09;;;;;;;;;;;24.30;68.20;;;;;;5173107;27;19930;-35
2023/08/03 05:11:35;;;;;;;;;;;24.30;68.30;;;;;;5167110;27;19924;-35
2023/08/03 05:14:00;;;;;;;;;;;24.30;68.30;;;;;;5166667;27;19936;-35
2023/08/03 05:16:27;;;;;;;;;;;24.30;68.30;;;;;;5176979;27;19951;-34
2023/08/03 05:18:53;;;;;;;;;;;24.30;68.30;;;;;;5165037;27;20113;-35
2023/08/03 05:21:19;;;;;;;;;;;24.30;68.40;;;;;;5178010;27;19966;-35
2023/08/03 05:23:45;;;;;;;;;;;24.30;68.50;;;;;;5175150;27;19986;-34
2023/08/03 05:26:11;;;;;;;;;;;24.30;68.60;;;;;;5164427;27;19921;-34
2023/08/03 05:28:38;;;;;;;;;;;24.30;69.30;;;;;;5164632;27;19938;-34
2023/08/03 05:31:06;;;;;;;;;;;24.30;68.60;;;;;;5177985;27;19919;-35
2023/08/03 05:33:33;;;;;;;;;;;24.30;68.60;;;;;;5171264;27;19922;-35
2023/08/03 05:35:59;;;;;;;;;;;24.30;68.70;;;;;;5164684;27;19923;-34
2023/08/03 05:38:25;;;;;;;;;;;24.30;68.60;;;;;;5164815;27;19911;-35
2023/08/03 05:40:50;;;;;;;;;;;24.30;68.60;;;;;;5165261;27;19934;-35
2023/08/03 05:43:16;;;;;;;;;;;24.30;68.60;;;;;;5183886;27;20002;-35
2023/08/03 05:45:47;;;;;;;;;;;24.30;68.60;;;;;;5172727;27;19915;-34
2023/08/03 05:48:17;;;;;;;;;;;24.30;68.60;;;;;;5154604;27;19918;-35
2023/08/03 05:50:44;;;;;;;;;;;24.30;68.60;;;;;;5184512;27;19915;-35
2023/08/03 05:53:10;;;;;;;;;;;24.30;68.60;;;;;;5175441;27;19915;-35
2023/08/03 05:55:36;;;;;;;;;;;24.30;68.60;;;;;;5178980;27;19949;-34
2023/08/03 05:58:02;;;;;;;;;;;24.30;69.40;;;;;;5169874;27;19915;-34
2023/08/03 06:00:28;;;;;;;;;;;24.30;68.70;;;;;;5155626;27;19921;-36
2023/08/03 06:02:57;;;;;;;;;;;24.30;68.80;;;;;;5179767;27;19940;-36
2023/08/03 06:05:52;;;;;;;;;;;24.30;68.80;;;;;;5175716;27;20490;-35
2023/08/03 06:08:21;;;;;;;;;;;24.30;68.80;;;;;;5100549;28;19923;-35
2023/08/03 06:10:48;;;;;;;;;;;24.30;68.90;;;;;;5100491;28;19942;-35
2023/08/03 06:13:15;;;;;;;;;;;24.40;69.10;;;;;;5102525;28;20645;-34
2023/08/03 06:15:41;;;;;;;;;;;24.30;69.10;;;;;;5101688;28;19920;-35
2023/08/03 06:18:16;;;;;;;;;;;24.30;69.30;;;;;;5103103;28;19923;-35
2023/08/03 06:20:46;;;;;;;;;;;24.30;69.20;;;;;;5102395;28;20320;-35
2023/08/03 06:23:19;;;;;;;;;;;24.30;69.10;;;;;;5101498;28;19992;-34
2023/08/03 06:25:45;;;;;;;;;;;24.40;69.20;;;;;;5102181;28;19920;-35
2023/08/03 06:28:11;;;;;;;;;;;24.30;69.10;;;;;;5085491;28;19916;-35
2023/08/03 06:30:37;;;;;;;;;;;24.30;69.10;;;;;;5102865;28;20380;-35
2023/08/03 06:33:03;;;;;;;;;;;24.40;69.10;;;;;;5101722;28;19916;-35
2023/08/03 06:35:31;;;;;;;;;;;24.30;69.00;;;;;;5102230;28;19926;-35
2023/08/03 06:37:59;;;;;;;;;;;24.40;69.10;;;;;;5101669;28;19920;-35
2023/08/03 06:40:25;;;;;;;;;;;24.30;69.00;;;;;;5102545;28;19916;-35
2023/08/03 06:42:51;;;;;;;;;;;24.40;69.10;;;;;;5101005;28;20458;-36
2023/08/03 06:45:17;;;;;;;;;;;24.40;69.20;;;;;;5153464;27;20260;-35
2023/08/03 06:47:43;;;;;;;;;;;24.40;69.30;;;;;;5170834;27;19999;-35
2023/08/03 06:50:09;;;;;;;;;;;24.40;69.30;;;;;;5150635;27;19919;-35
2023/08/03 06:52:35;;;;;;;;;;;24.40;69.40;;;;;;5170192;27;19926;-35
2023/08/03 06:55:00;;;;;;;;;;;24.30;69.40;;;;;;5174260;27;19976;-35
2023/08/03 06:57:26;;;;;;;;;;;24.40;69.60;;;;;;5178084;27;19919;-34
2023/08/03 06:59:55;;;;;;;;;;;24.40;69.60;;;;;;5172725;27;19915;-35
2023/08/03 07:02:21;;;;;;;;;;;24.40;69.70;;;;;;5174137;27;19915;-34
2023/08/03 07:04:47;;;;;;;;;;;24.40;69.70;;;;;;5182276;27;19921;-34
2023/08/03 07:07:34;;;;;;;;;;;24.40;69.80;;;;;;5170178;27;20009;-35
2023/08/03 07:10:00;;;;;;;;;;;24.40;69.70;;;;;;5122226;28;19915;-35
2023/08/03 07:12:26;;;;;;;;;;;24.30;69.60;;;;;;5121126;27;19954;-35
2023/08/03 07:14:52;;;;;;;;;;;24.30;69.50;;;;;;5121994;28;19912;-35
2023/08/03 07:17:18;;;;;;;;;;;24.40;69.60;;;;;;5105066;28;20487;-35
2023/08/03 07:19:44;;;;;;;;;;;24.40;69.60;;;;;;5122477;28;19916;-35
2023/08/03 07:22:10;;;;;;;;;;;24.40;69.70;;;;;;5123076;27;21683;-35
2023/08/03 07:24:36;;;;;;;;;;;24.40;69.70;;;;;;5124681;27;19916;-35
2023/08/03 07:27:02;;;;;;;;;;;24.40;69.70;;;;;;5120103;28;19916;-35
2023/08/03 07:29:29;;;;;;;;;;;24.40;69.70;;;;;;5120539;27;20085;-35
2023/08/03 07:31:55;;;;;;;;;;;24.40;69.80;;;;;;5124617;27;19916;-35
2023/08/03 07:34:20;;;;;;;;;;;24.40;69.80;;;;;;5118172;28;19938;-35
2023/08/03 07:36:46;;;;;;;;;;;24.40;70.70;;;;;;5121880;28;19920;-35
2023/08/03 07:39:12;;;;;;;;;;;24.40;70.00;;;;;;5121578;27;19922;-35
2023/08/03 07:41:38;;;;;;;;;;;24.40;70.10;;;;;;5121659;28;19927;-35
2023/08/03 07:44:04;;;;;;;;;;;24.40;70.10;;;;;;5122227;27;19911;-35
2023/08/03 07:46:30;;;;;;;;;;;24.40;70.20;;;;;;5136449;27;20402;-34
2023/08/03 07:48:56;;;;;;;;;;;24.40;70.20;;;;;;5176574;27;19968;-35
2023/08/03 07:51:23;;;;;;;;;;;24.40;70.20;;;;;;5157326;27;20362;-34
2023/08/03 07:53:48;;;;;;;;;;;24.40;70.20;;;;;;5172606;27;19912;-34
2023/08/03 07:56:21;;;;;;;;;;;24.40;70.20;;;;;;5174055;27;19930;-35
2023/08/03 07:58:47;;;;;;;;;;;24.40;70.10;;;;;;5181576;27;19942;-35
2023/08/03 08:01:13;;;;;;;;;;;24.40;70.10;;;;;;5157355;27;19915;-34
2023/08/03 08:03:39;;;;;;;;;;;24.40;70.10;;;;;;5178239;27;20700;-35
2023/08/03 08:06:05;;;;;;;;;;;24.40;70.10;;;;;;5174554;27;19911;-35
2023/08/03 08:08:31;;;;;;;;;;;24.40;70.20;;;;;;5175580;27;19997;-35
2023/08/03 08:10:57;;;;;;;;;;;24.40;70.10;;;;;;5173693;27;19926;-35
2023/08/03 08:13:23;;;;;;;;;;;24.40;70.10;;;;;;5171945;27;19946;-34
2023/08/03 08:15:49;;;;;;;;;;;24.40;70.20;;;;;;5172454;27;19940;-35
2023/08/03 08:18:15;;;;;;;;;;;24.40;70.30;;;;;;5175769;27;19947;-35
2023/08/03 08:20:41;;;;;;;;;;;24.40;70.30;;;;;;5175287;27;20013;-35
2023/08/03 08:23:07;;;;;;;;;;;24.40;70.30;;;;;;5181815;27;19991;-35
2023/08/03 08:25:33;;;;;;;;;;;24.40;70.30;;;;;;5176350;27;19936;-35
2023/08/03 08:27:59;;;;;;;;;;;24.40;70.40;;;;;;5175405;27;19936;-35
2023/08/03 08:30:25;;;;;;;;;;;24.40;70.40;;;;;;5182725;27;19910;-35
2023/08/03 08:32:52;;;;;;;;;;;24.40;70.50;;;;;;5174808;27;20398;-35
2023/08/03 08:35:18;;;;;;;;;;;24.40;70.50;;;;;;5176529;27;19981;-35
2023/08/03 08:37:44;;;;;;;;;;;24.40;70.40;;;;;;5177373;27;19971;-35
2023/08/03 08:40:12;;;;;;;;;;;24.30;70.30;;;;;;5182089;27;19914;-35
2023/08/03 08:42:38;;;;;;;;;;;24.40;70.50;;;;;;5177830;27;19915;-34
2023/08/03 08:45:05;;;;;;;;;;;24.40;70.40;;;;;;5169560;27;19922;-35
2023/08/03 08:47:31;;;;;;;;;;;24.40;70.50;;;;;;5166128;27;20006;-35
2023/08/03 08:49:57;;;;;;;;;;;24.40;70.60;;;;;;5171139;27;20430;-35
2023/08/03 08:52:23;;;;;;;;;;;24.40;70.60;;;;;;5169877;27;19944;-35
2023/08/03 08:54:49;;;;;;;;;;;24.40;70.60;;;;;;5179701;27;19922;-34
2023/08/03 08:57:15;;;;;;;;;;;24.30;70.50;;;;;;5179828;27;19919;-35
2023/08/03 09:00:02;;;;;;;;;;;24.30;70.50;;;;;;5177216;27;19918;-35
2023/08/03 09:02:28;;;;;;;;;;;24.40;70.70;;;;;;5170535;27;19978;-37
2023/08/03 09:04:54;;;;;;;;;;;24.40;70.70;;;;;;5176558;27;19926;-34
2023/08/03 09:07:20;;;;;;;;;;;24.30;70.70;;;;;;5181712;27;19911;-34
2023/08/03 09:09:46;;;;;;;;;;;24.30;70.70;;;;;;5173039;27;19915;-34
2023/08/03 09:12:25;;;;;;;;;;;24.30;70.70;;;;;;5173533;27;19957;-35
2023/08/03 09:14:51;;;;;;;;;;;24.40;71.60;;;;;;5178756;27;20005;-35
2023/08/03 09:17:20;;;;;;;;;;;24.30;70.80;;;;;;5155560;27;19912;-34
2023/08/03 09:19:46;;;;;;;;;;;24.30;70.70;;;;;;5169210;27;19934;-34
2023/08/03 09:22:12;;;;;;;;;;;24.30;71.50;;;;;;5171267;27;19914;-35
2023/08/03 09:24:38;;;;;;;;;;;24.30;70.80;;;;;;5172022;27;19981;-34
2023/08/03 09:27:04;;;;;;;;;;;24.30;70.70;;;;;;5183361;27;19919;-35
2023/08/03 09:29:30;;;;;;;;;;;24.30;70.80;;;;;;5184789;27;19915;-34
2023/08/03 09:32:00;;;;;;;;;;;24.30;70.70;;;;;;5177571;27;20017;-34
2023/08/03 09:34:44;;;;;;;;;;;24.30;70.80;;;;;;5176407;27;19919;-35
2023/08/03 09:37:11;;;;;;;;;;;24.30;70.80;;;;;;5178731;27;19951;-34
2023/08/03 09:39:38;;;;;;;;;;;24.30;70.80;;;;;;5184446;27;19982;-34
2023/08/03 09:42:05;;;;;;;;;;;24.30;70.80;;;;;;5172200;27;19954;-35
2023/08/03 09:44:33;;;;;;;;;;;24.30;71.00;;;;;;5187924;27;19921;-35
2023/08/03 09:47:02;;;;;;;;;;;24.30;71.00;;;;;;5179677;27;19910;-35
2023/08/03 09:49:28;;;;;;;;;;;24.30;71.00;;;;;;5175042;27;19937;-34
2023/08/03 09:51:55;;;;;;;;;;;24.30;71.10;;;;;;5178988;27;19919;-35
2023/08/03 09:54:45;;;;;;;;;;;24.30;71.00;;;;;;5185230;27;19914;-35
2023/08/03 09:57:13;;;;;;;;;;;24.30;71.00;;;;;;5158458;27;19919;-35
2023/08/03 09:59:41;;;;;;;;;;;24.30;71.00;;;;;;5178943;27;19993;-35
2023/08/03 10:02:07;;;;;;;;;;;24.30;71.00;;;;;;5176602;27;19938;-35
2023/08/03 10:04:34;;;;;;;;;;;24.30;71.00;;;;;;5176215;27;19974;-35
2023/08/03 10:07:01;;;;;;;;;;;24.30;71.00;;;;;;5181813;27;19957;-35
2023/08/03 10:09:28;;;;;;;;;;;24.30;71.10;;;;;;5172882;27;19911;-35
2023/08/03 10:11:54;;;;;;;;;;;24.30;71.00;;;;;;5157855;27;20430;-35
2023/08/03 10:14:22;;;;;;;;;;;24.30;71.00;;;;;;5151676;27;19974;-35
2023/08/03 10:16:48;;;;;;;;;;;24.30;71.00;;;;;;5176461;27;20034;-35
2023/08/03 10:19:13;;;;;;;;;;;24.30;71.00;;;;;;5175912;27;19960;-34
2023/08/03 10:21:39;;;;;;;;;;;24.30;71.80;;;;;;5172884;27;19922;-35
2023/08/03 10:24:15;;;;;;;;;;;24.20;71.00;;;;;;5165169;27;19922;-35
2023/08/03 10:26:41;;;;;;;;;;;24.30;71.10;;;;;;5175543;27;19949;-34
2023/08/03 10:29:07;;;;;;;;;;;24.30;71.10;;;;;;5177764;27;19911;-34
2023/08/03 10:31:33;;;;;;;;;;;24.30;71.20;;;;;;5183699;27;19914;-35
2023/08/03 10:33:59;;;;;;;;;;;24.30;71.20;;;;;;5178626;27;19914;-34
2023/08/03 10:36:28;;;;;;;;;;;24.30;71.20;;;;;;5183726;27;19926;-34
2023/08/03 10:38:54;;;;;;;;;;;24.30;71.20;;;;;;5171301;27;19919;-35
2023/08/03 10:41:23;;;;;;;;;;;24.30;71.30;;;;;;5178525;27;19938;-34
2023/08/03 10:44:12;;;;;;;;;;;24.20;71.30;;;;;;5171527;27;19914;-34
2023/08/03 10:46:41;;;;;;;;;;;24.30;71.30;;;;;;5174339;27;19911;-35
2023/08/03 10:49:25;;;;;;;;;;;24.30;71.30;;;;;;5177241;27;19938;-35
2023/08/03 10:51:51;;;;;;;;;;;24.20;71.20;;;;;;5170982;27;20093;-35
2023/08/03 10:54:18;;;;;;;;;;;24.20;71.20;;;;;;5155820;27;19936;-34
2023/08/03 10:57:04;;;;;;;;;;;24.20;71.20;;;;;;5168313;27;19923;-35
2023/08/03 10:59:40;;;;;;;;;;;24.20;71.20;;;;;;5176760;27;19958;-34
2023/08/03 11:02:10;;;;;;;;;;;24.20;71.20;;;;;;5174676;27;19945;-34
2023/08/03 11:04:35;;;;;;;;;;;24.20;71.30;;;;;;5172772;27;19915;-35
2023/08/03 11:07:04;;;;;;;;;;;24.20;71.20;;;;;;5173146;27;19907;-34
2023/08/03 11:09:30;;;;;;;;;;;24.20;71.10;;;;;;5173696;27;20011;-35
2023/08/03 11:11:57;;;;;;;;;;;24.20;71.20;;;;;;5168137;27;19916;-34
2023/08/03 11:14:23;;;;;;;;;;;24.20;71.30;;;;;;5182503;27;19915;-35
2023/08/03 11:16:49;;;;;;;;;;;24.20;71.30;;;;;;5169790;27;19915;-35
2023/08/03 11:19:15;;;;;;;;;;;24.20;71.30;;;;;;5177636;27;19972;-35
2023/08/03 11:21:41;;;;;;;;;;;24.20;71.40;;;;;;5184158;27;20243;-35
2023/08/03 11:24:07;;;;;;;;;;;24.20;71.40;;;;;;5175206;27;19911;-35
2023/08/03 11:26:33;;;;;;;;;;;24.20;71.50;;;;;;5171903;27;19953;-36
2023/08/03 11:28:59;;;;;;;;;;;24.20;71.50;;;;;;5177296;27;19911;-34
2023/08/03 11:31:24;;;;;;;;;;;24.20;71.40;;;;;;5179375;27;19926;-34
2023/08/03 11:33:51;;;;;;;;;;;24.20;71.50;;;;;;5174210;27;19943;-35
2023/08/03 11:36:17;;;;;;;;;;;24.20;71.50;;;;;;5166088;27;19994;-34
2023/08/03 11:38:44;;;;;;;;;;;24.20;71.40;;;;;;5156778;27;19953;-35
2023/08/03 11:41:13;;;;;;;;;;;24.20;71.40;;;;;;5156321;27;19971;-35
2023/08/03 11:43:39;;;;;;;;;;;24.20;71.20;;;;;;5159652;27;19986;-35
2023/08/03 11:46:05;;;;;;;;;;;24.20;71.30;;;;;;5178335;27;19918;-34
2023/08/03 11:48:30;;;;;;;;;;;24.20;71.30;;;;;;5178491;27;19915;-35
2023/08/03 11:50:57;;;;;;;;;;;24.20;71.30;;;;;;5172925;27;19922;-35
2023/08/03 11:53:24;;;;;;;;;;;24.20;71.30;;;;;;5166347;27;19911;-34
2023/08/03 11:55:50;;;;;;;;;;;24.20;71.30;;;;;;5166460;27;19982;-35
2023/08/03 11:58:16;;;;;;;;;;;24.20;71.40;;;;;;5170696;27;19954;-34
2023/08/03 12:00:42;;;;;;;;;;;24.20;71.30;;;;;;5178308;27;19986;-35
2023/08/03 12:03:08;;;;;;;;;;;24.20;71.50;;;;;;5157861;27;19915;-35
2023/08/03 12:05:53;;;;;;;;;;;24.20;71.50;;;;;;5179547;27;19936;-34
2023/08/03 12:08:19;;;;;;;;;;;24.20;71.60;;;;;;5172156;27;19978;-34
2023/08/03 12:11:01;;;;;;;;;;;24.20;71.50;;;;;;5161671;27;19914;-35
2023/08/03 12:13:27;;;;;;;;;;;24.20;71.50;;;;;;5176219;27;19915;-35
2023/08/03 12:15:53;;;;;;;;;;;24.20;71.40;;;;;;5172043;27;19918;-34
2023/08/03 12:18:20;;;;;;;;;;;24.20;71.40;;;;;;5171322;27;19911;-35
2023/08/03 12:20:47;;;;;;;;;;;24.20;71.40;;;;;;5165741;27;19933;-35
2023/08/03 12:23:13;;;;;;;;;;;24.20;72.20;;;;;;5154333;27;19915;-35
2023/08/03 12:25:39;;;;;;;;;;;24.20;71.40;;;;;;5169744;27;19935;-35
2023/08/03 12:28:05;;;;;;;;;;;24.20;71.50;;;;;;5168988;27;19918;-35
2023/08/03 12:30:31;;;;;;;;;;;24.20;71.50;;;;;;5172422;27;19911;-35
2023/08/03 12:32:57;;;;;;;;;;;24.20;71.50;;;;;;5183071;27;19914;-35
2023/08/03 12:35:23;;;;;;;;;;;24.20;71.60;;;;;;5184042;27;19962;-35
2023/08/03 12:37:49;;;;;;;;;;;24.20;71.60;;;;;;5183864;27;20363;-35
2023/08/03 12:40:16;;;;;;;;;;;24.20;71.60;;;;;;5173774;27;19919;-34
2023/08/03 12:42:42;;;;;;;;;;;24.20;71.70;;;;;;5178393;27;19914;-35
2023/08/03 12:45:08;;;;;;;;;;;24.20;71.70;;;;;;5176869;27;19910;-35
2023/08/03 12:47:33;;;;;;;;;;;24.20;71.80;;;;;;5176753;27;19922;-35
2023/08/03 12:49:59;;;;;;;;;;;24.20;72.50;;;;;;5175733;27;19915;-35
2023/08/03 12:52:25;;;;;;;;;;;24.20;71.90;;;;;;5173063;27;19917;-35
2023/08/03 12:54:52;;;;;;;;;;;24.20;71.90;;;;;;5173387;27;19915;-35
2023/08/03 12:57:18;;;;;;;;;;;24.20;71.80;;;;;;5182708;27;19923;-35
2023/08/03 12:59:43;;;;;;;;;;;24.20;71.80;;;;;;5175408;27;19979;-35
2023/08/03 13:02:09;;;;;;;;;;;24.20;71.80;;;;;;5180898;27;19919;-35
2023/08/03 13:04:35;;;;;;;;;;;24.20;71.70;;;;;;5176731;27;19911;-34
2023/08/03 13:07:01;;;;;;;;;;;24.20;71.70;;;;;;5181657;27;20374;-35
2023/08/03 13:09:27;;;;;;;;;;;24.20;71.70;;;;;;5172465;27;19922;-34
2023/08/03 13:11:53;;;;;;;;;;;24.30;71.70;;;;;;5171595;27;19922;-35
2023/08/03 13:14:19;;;;;;;;;;;24.20;71.70;;;;;;5173013;27;19918;-34
2023/08/03 13:16:45;;;;;;;;;;;24.30;71.70;;;;;;5172377;27;20643;-35
2023/08/03 13:19:11;;;;;;;;;;;24.20;71.80;;;;;;5171700;27;19915;-35
2023/08/03 13:21:37;;;;;;;;;;;24.30;71.90;;;;;;5170127;27;19919;-34
2023/08/03 13:24:02;;;;;;;;;;;24.30;71.80;;;;;;5173964;27;19915;-37
2023/08/03 13:26:28;;;;;;;;;;;24.30;71.80;;;;;;5172133;27;19925;-35
2023/08/03 13:28:54;;;;;;;;;;;24.30;71.90;;;;;;5168623;27;19919;-35
2023/08/03 13:31:20;;;;;;;;;;;24.30;71.90;;;;;;5178528;27;19936;-35
2023/08/03 13:33:46;;;;;;;;;;;24.30;72.00;;;;;;5172408;27;19919;-35
2023/08/03 13:36:12;;;;;;;;;;;24.30;72.00;;;;;;5174593;27;19923;-35
2023/08/03 13:38:38;;;;;;;;;;;24.30;72.10;;;;;;5170293;27;19915;-35
2023/08/03 13:41:04;;;;;;;;;;;24.30;72.20;;;;;;5165196;27;19911;-35
2023/08/03 13:43:29;;;;;;;;;;;24.30;72.10;;;;;;5154791;27;19915;-35
2023/08/03 13:45:55;;;;;;;;;;;24.30;72.10;;;;;;5170012;27;19958;-35
2023/08/03 13:48:21;;;;;;;;;;;24.30;72.20;;;;;;5182519;27;19950;-34
2023/08/03 13:50:48;;;;;;;;;;;24.30;72.20;;;;;;5172490;27;19914;-34
2023/08/03 13:53:13;;;;;;;;;;;24.30;72.30;;;;;;5174730;27;19950;-35
2023/08/03 13:55:39;;;;;;;;;;;24.30;72.40;;;;;;5182215;27;19923;-35
2023/08/03 13:58:06;;;;;;;;;;;24.30;72.40;;;;;;5181522;27;20599;-35
2023/08/03 14:00:33;;;;;;;;;;;24.30;72.50;;;;;;5181253;27;19914;-34
2023/08/03 14:03:00;;;;;;;;;;;24.40;72.50;;;;;;5156195;27;19911;-34
2023/08/03 14:05:27;;;;;;;;;;;24.40;72.70;;;;;;5172269;27;19922;-35
2023/08/03 14:07:52;;;;;;;;;;;24.40;72.60;;;;;;5171311;27;19914;-35
2023/08/03 14:10:18;;;;;;;;;;;24.40;72.60;;;;;;5175325;27;19946;-35
2023/08/03 14:12:44;;;;;;;;;;;24.40;72.70;;;;;;5173455;27;19919;-35
2023/08/03 14:15:10;;;;;;;;;;;24.40;72.50;;;;;;5177630;27;20752;-35